Pakpattan Weather



Pakpattan's Current Weather

Temprature 26.426o clear sky

clear sky

Rain: 0 %

Min Temprature26.426o
Max Temprature26.426o
Humidity31
Wind Speed2.08 m/h
Sun Rise05:33:16
Sun Set18:36:52
Current Time: 21-Apr-2019 05:59:50
Lat/Lon: 30.34, 73.39




Pakpattan's Geo Location



Pakpattan's Weather Forecast

Time Overall Temp Min Temp Max Temp Humidity Wind Speed Rain
21-Apr-2019 (Sun)
08:00:00 clear sky 31.370 31.369 31.370 23 2.61 m/h 0 %
11:00:00 clear sky 36.650 36.650 36.650 15 3.17 m/h 0 %
14:00:00 clear sky 40.150 40.150 40.150 11 1.29 m/h 0 %
17:00:00 clear sky 39.250 39.250 39.250 11 2.24 m/h 0 %
20:00:00 clear sky 33.150 33.150 33.150 17 3.01 m/h 0 %
23:00:00 clear sky 30.600 30.600 30.600 23 2.58 m/h 0 %
22-Apr-2019 (Mon)
02:00:00 clear sky 28.870 28.870 28.870 26 2.74 m/h 0 %
05:00:00 clear sky 27.274 27.274 27.274 31 3 m/h 0 %
08:00:00 clear sky 31.976 31.976 31.976 27 3.58 m/h 0 %
11:00:00 clear sky 38.020 38.020 38.020 16 3.03 m/h 0 %
14:00:00 clear sky 42.115 42.115 42.115 11 0.65 m/h 0 %
17:00:00 clear sky 41.031 41.031 41.031 10 2.07 m/h 0 %
20:00:00 clear sky 35.150 35.150 35.150 15 2.27 m/h 0 %
23:00:00 clear sky 32.296 32.296 32.296 20 2.38 m/h 0 %
23-Apr-2019 (Tue)
02:00:00 clear sky 30.477 30.477 30.477 24 3.03 m/h 0 %
05:00:00 clear sky 28.776 28.776 28.776 28 3.39 m/h 0 %
08:00:00 broken clouds 33.387 33.387 33.387 22 3.52 m/h 0 %
11:00:00 scattered clouds 40.050 40.050 40.050 14 4.05 m/h 0 %
14:00:00 clear sky 43.550 43.550 43.550 9 1.85 m/h 0 %
17:00:00 clear sky 43.150 43.150 43.150 8 2.88 m/h 0 %
20:00:00 clear sky 36.228 36.228 36.228 12 1.56 m/h 0 %
23:00:00 clear sky 33.750 33.750 33.750 16 2.78 m/h 0 %
24-Apr-2019 (Wed)
02:00:00 overcast clouds 32.282 32.282 32.282 19 2.98 m/h 0 %
05:00:00 broken clouds 30.144 30.144 30.144 20 1.26 m/h 0 %
08:00:00 clear sky 36.050 36.050 36.050 12 2.62 m/h 0 %
11:00:00 clear sky 42.609 42.609 42.609 8 6.6 m/h 0 %
14:00:00 clear sky 43.950 43.950 43.950 6 8.19 m/h 0 %
17:00:00 clear sky 42.150 42.150 42.150 4 7 m/h 0 %
20:00:00 clear sky 34.755 34.755 34.755 8 2.36 m/h 0 %
23:00:00 clear sky 31.845 31.845 31.845 25 8.3 m/h 0 %
25-Apr-2019 (Thu)
02:00:00 broken clouds 30.150 30.150 30.150 30 7.17 m/h 0 %
05:00:00 broken clouds 29.432 29.432 29.432 30 2.45 m/h 0 %
08:00:00 overcast clouds 32.620 32.620 32.620 24 4.15 m/h 0 %
11:00:00 overcast clouds 38.390 38.390 38.390 16 4.45 m/h 0 %
14:00:00 overcast clouds 39.150 39.150 39.150 16 3.29 m/h 0 %
17:00:00 broken clouds 39.811 39.811 39.811 14 2.25 m/h 0 %
20:00:00 few clouds 33.925 33.925 33.925 19 2.47 m/h 0 %
23:00:00 clear sky 31.543 31.543 31.543 21 1.93 m/h 0 %
26-Apr-2019 (Fri)
02:00:00 clear sky 29.632 29.632 29.632 23 2.36 m/h 0 %
05:00:00 clear sky 28.056 28.056 28.056 26 2.52 m/h 0 %

Famous Cities (60)